Time;durP1;ratioP1;P1;durP2;ratioP2;P2;SDS_P1;SDS_P2;PMS_P1;PMS_P2;Temp;Humidity;BMP_temperature;BMP_pressure;BME280_temperature;BME280_humidity;BME280_pressure;Samples;Min_cycle;Max_cycle;Signal;HPM_P1;HPM_P2
2022/05/27 00:01:32;;;;;;;110.70;104.50;;;14.10;99.90;;;;;;5114822;28;20040;-60
2022/05/27 00:04:01;;;;;;;100.78;94.93;;;14.10;99.90;;;;;;5118850;27;20083;-60
2022/05/27 00:06:28;;;;;;;96.85;91.15;;;14.10;99.90;;;;;;5137584;27;20244;-61
2022/05/27 00:08:54;;;;;;;93.82;88.38;;;14.10;99.90;;;;;;5136438;27;20051;-60
2022/05/27 00:11:22;;;;;;;110.88;104.22;;;14.00;99.90;;;;;;5137283;27;20115;-60
2022/05/27 00:13:49;;;;;;;81.63;76.55;;;13.90;99.90;;;;;;5137511;27;20043;-60
2022/05/27 00:16:15;;;;;;;98.05;92.38;;;13.90;99.90;;;;;;5136447;27;20047;-61
2022/05/27 00:18:42;;;;;;;89.80;84.82;;;13.90;99.90;;;;;;5114537;28;20474;-61
2022/05/27 00:21:08;;;;;;;83.00;78.38;;;13.80;99.90;;;;;;5122253;27;20039;-60
2022/05/27 00:23:34;;;;;;;73.68;69.57;;;13.80;99.90;;;;;;5137375;27;20126;-60
2022/05/27 00:26:00;;;;;;;65.47;61.40;;;13.70;99.90;;;;;;5136843;27;20047;-60
2022/05/27 00:28:26;;;;;;;63.45;59.58;;;13.60;99.90;;;;;;5136240;27;20088;-60
2022/05/27 00:30:53;;;;;;;71.13;66.32;;;13.60;99.90;;;;;;5118555;27;20091;-60
2022/05/27 00:33:19;;;;;;;72.63;68.18;;;13.70;99.90;;;;;;5118035;27;20081;-61
2022/05/27 00:35:44;;;;;;;75.65;70.88;;;13.60;99.90;;;;;;5135827;27;20531;-60
2022/05/27 00:38:10;;;;;;;77.22;73.15;;;13.50;99.90;;;;;;5118645;27;20122;-61
2022/05/27 00:40:41;;;;;;;65.32;61.40;;;13.40;99.90;;;;;;5136572;27;20393;-60
2022/05/27 00:43:07;;;;;;;59.08;54.83;;;13.40;99.90;;;;;;5135749;27;20205;-60
2022/05/27 00:45:35;;;;;;;58.97;55.28;;;13.40;99.90;;;;;;5136263;27;20092;-60
2022/05/27 00:48:06;;;;;;;66.32;62.55;;;13.40;99.90;;;;;;5136591;27;20401;-60
2022/05/27 00:50:38;;;;;;;62.42;59.10;;;13.30;99.90;;;;;;5135679;27;20059;-60
2022/05/27 00:53:06;;;;;;;61.22;57.40;;;13.20;99.90;;;;;;5118042;27;20077;-60
2022/05/27 00:55:40;;;;;;;60.97;56.72;;;13.20;99.90;;;;;;5115584;28;20047;-60
2022/05/27 00:58:13;;;;;;;72.38;68.00;;;13.20;99.90;;;;;;5096832;28;20478;-60
2022/05/27 01:00:39;;;;;;;83.55;78.47;;;13.10;99.90;;;;;;5117946;27;20515;-60
2022/05/27 01:03:09;;;;;;;81.88;77.22;;;13.00;99.90;;;;;;5124971;27;20080;-60
2022/05/27 01:05:35;;;;;;;70.43;66.20;;;12.90;99.90;;;;;;5136445;27;20043;-60
2022/05/27 01:08:05;;;;;;;72.80;68.70;;;12.90;99.90;;;;;;5136302;27;20047;-60
2022/05/27 01:10:54;;;;;;;63.85;59.78;;;12.80;99.90;;;;;;5116563;27;20082;-60
2022/05/27 01:13:40;;;;;;;83.63;78.75;;;12.80;99.90;;;;;;5115551;28;20470;-60
2022/05/27 01:16:20;;;;;;;89.22;84.50;;;12.80;99.90;;;;;;5097670;28;20192;-60
2022/05/27 01:22:38;;;;;;;78.80;74.72;;;12.80;99.90;;;;;;5136005;27;20515;-60
2022/05/27 01:25:32;;;;;;;84.95;79.75;;;12.70;99.90;;;;;;5134675;27;20046;-60
2022/05/27 01:28:41;;;;;;;72.45;68.78;;;12.70;99.90;;;;;;5136213;27;20058;-60
2022/05/27 01:31:15;;;;;;;86.30;81.75;;;12.70;99.90;;;;;;5130604;27;20093;-61
2022/05/27 01:33:51;;;;;;;72.25;67.75;;;12.70;99.90;;;;;;5131310;27;20362;-61
2022/05/27 01:36:41;;;;;;;66.18;62.00;;;12.70;99.90;;;;;;5135676;27;20481;-60
2022/05/27 01:39:32;;;;;;;59.92;56.47;;;12.70;99.90;;;;;;5134222;27;20405;-60
2022/05/27 01:42:08;;;;;;;90.07;85.15;;;12.60;99.90;;;;;;5135674;27;20059;-60
2022/05/27 01:44:53;;;;;;;79.43;74.85;;;12.50;99.90;;;;;;5135582;27;20054;-60
2022/05/27 01:47:32;;;;;;;78.82;74.35;;;12.50;99.90;;;;;;5134392;27;20054;-60
2022/05/27 01:50:14;;;;;;;77.18;72.85;;;12.50;99.90;;;;;;5116833;27;20442;-60
2022/05/27 01:52:51;;;;;;;75.68;71.13;;;12.50;99.90;;;;;;5134694;27;20726;-60
2022/05/27 01:55:27;;;;;;;65.90;60.85;;;12.50;99.90;;;;;;5134827;27;20452;-60
2022/05/27 01:58:04;;;;;;;66.03;62.30;;;12.50;99.90;;;;;;5117266;27;20043;-60
2022/05/27 02:00:30;;;;;;;98.38;93.05;;;12.40;99.90;;;;;;5134366;27;20054;-60
2022/05/27 02:03:06;;;;;;;107.55;102.30;;;12.40;99.90;;;;;;5116446;27;20539;-60
2022/05/27 02:05:35;;;;;;;117.40;111.57;;;12.30;99.90;;;;;;5134827;27;20127;-60
2022/05/27 02:08:16;;;;;;;98.60;93.65;;;12.20;99.90;;;;;;5134584;27;20114;-60
2022/05/27 02:10:57;;;;;;;68.90;64.82;;;12.10;99.90;;;;;;5134664;27;20082;-60
2022/05/27 02:13:38;;;;;;;69.45;65.53;;;12.00;99.90;;;;;;5134840;27;20046;-60
2022/05/27 02:16:09;;;;;;;85.00;79.97;;;12.00;99.90;;;;;;5115568;27;20062;-60
2022/05/27 02:18:44;;;;;;;100.13;94.65;;;11.90;99.90;;;;;;5134982;27;20042;-60
2022/05/27 02:21:15;;;;;;;98.82;94.05;;;11.80;99.90;;;;;;5133760;27;20114;-60
2022/05/27 02:23:47;;;;;;;90.90;86.10;;;11.80;99.90;;;;;;5134339;27;20149;-60
2022/05/27 02:26:17;;;;;;;94.18;89.25;;;11.70;99.90;;;;;;5116752;27;20047;-60
2022/05/27 02:28:47;;;;;;;97.47;92.50;;;;;;;;;;5133891;27;20035;-60
2022/05/27 02:31:17;;;;;;;111.57;105.97;;;;;;;;;;5112205;28;20044;-60
2022/05/27 02:36:37;;;;;;;104.20;98.47;;;;;;;;;;5134037;27;20043;-60
2022/05/27 02:39:04;;;;;;;97.97;92.93;;;;;;;;;;5134225;27;20047;-60
2022/05/27 02:41:35;;;;;;;111.75;105.93;;;;;;;;;;5133930;27;20055;-60
2022/05/27 02:44:07;;;;;;;107.05;101.40;;;;;;;;;;5134458;27;20078;-60
2022/05/27 02:46:43;;;;;;;93.00;87.88;;;;;;;;;;5134303;27;20050;-60
2022/05/27 02:49:16;;;;;;;81.70;77.50;;;;;;;;;;5133321;27;20441;-60
2022/05/27 02:51:57;;;;;;;83.00;78.13;;;;;;;;;;5134548;27;20134;-60
2022/05/27 02:54:27;;;;;;;74.60;70.80;;;;;;;;;;5133753;27;20043;-60
2022/05/27 02:56:58;;;;;;;65.43;62.13;;;;;;;;;;5114989;27;20089;-60
2022/05/27 02:59:24;;;;;;;84.65;79.85;;;;;;;;;;5113778;28;20097;-60
2022/05/27 03:01:50;;;;;;;85.93;80.93;;;11.40;99.90;;;;;;5095288;28;20054;-60
2022/05/27 03:04:18;;;;;;;76.50;72.35;;;11.50;99.90;;;;;;5117610;27;20043;-60
2022/05/27 03:06:56;;;;;;;71.40;67.45;;;11.40;99.90;;;;;;5133759;27;20393;-60
2022/05/27 03:09:34;;;;;;;58.85;55.28;;;11.20;99.90;;;;;;5115382;27;20069;-60
2022/05/27 03:12:18;;;;;;;50.83;48.03;;;11.20;99.90;;;;;;5133383;27;20049;-60
2022/05/27 03:14:57;;;;;;;77.13;72.40;;;11.10;99.90;;;;;;5115247;27;20047;-60
2022/05/27 03:17:42;;;;;;;92.22;87.45;;;11.10;99.90;;;;;;5133322;27;20050;-60
2022/05/27 03:20:34;;;;;;;92.95;87.75;;;11.00;99.90;;;;;;5115464;27;20088;-60
2022/05/27 03:23:12;;;;;;;89.35;84.97;;;10.90;99.90;;;;;;5113004;28;20127;-60
2022/05/27 03:25:43;;;;;;;79.78;75.35;;;10.90;99.90;;;;;;5108835;28;20051;-60
2022/05/27 03:28:23;;;;;;;86.47;81.95;;;10.80;99.90;;;;;;5113291;28;20489;-60
2022/05/27 03:31:05;;;;;;;91.10;86.53;;;10.80;99.90;;;;;;5112483;28;20039;-60
2022/05/27 03:33:56;;;;;;;78.72;74.75;;;10.80;99.90;;;;;;5127664;28;20074;-60
2022/05/27 03:36:34;;;;;;;88.22;83.38;;;10.70;99.90;;;;;;5133620;28;20066;-60
2022/05/27 03:39:26;;;;;;;62.15;58.83;;;10.70;99.90;;;;;;5114212;28;20466;-60
2022/05/27 03:41:58;;;;;;;65.05;61.30;;;10.70;99.90;;;;;;5111292;28;20131;-60
2022/05/27 03:44:27;;;;;;;79.80;75.53;;;10.60;99.90;;;;;;5125133;28;20115;-60
2022/05/27 03:46:53;;;;;;;72.55;68.60;;;10.70;99.90;;;;;;5132813;28;20125;-60
2022/05/27 03:49:20;;;;;;;72.80;68.55;;;10.80;99.90;;;;;;5133783;28;20174;-60
2022/05/27 03:51:54;;;;;;;75.43;71.20;;;10.80;99.90;;;;;;5111350;28;20048;-60
2022/05/27 03:54:21;;;;;;;81.78;77.55;;;10.90;99.90;;;;;;5112925;28;20047;-60
2022/05/27 03:56:47;;;;;;;96.43;91.45;;;10.90;99.90;;;;;;5117895;28;20047;-60
2022/05/27 03:59:15;;;;;;;66.40;62.03;;;10.90;99.90;;;;;;5132410;28;20047;-60
2022/05/27 04:01:43;;;;;;;80.18;75.70;;;10.90;99.90;;;;;;5114866;28;20079;-60
2022/05/27 04:04:12;;;;;;;87.97;83.32;;;10.80;99.90;;;;;;5133482;28;20023;-60
2022/05/27 04:06:38;;;;;;;86.07;81.32;;;11.00;99.90;;;;;;5132669;28;20050;-60
2022/05/27 04:09:05;;;;;;;92.50;87.63;;;11.00;99.90;;;;;;5132765;28;20535;-60
2022/05/27 04:11:31;;;;;;;90.25;85.63;;;11.00;99.90;;;;;;5133502;28;20084;-60
2022/05/27 04:13:57;;;;;;;88.05;83.60;;;11.10;99.90;;;;;;5132827;28;20081;-60
2022/05/27 04:16:24;;;;;;;90.40;85.90;;;11.20;99.90;;;;;;5133178;28;20039;-60
2022/05/27 04:18:50;;;;;;;83.72;79.57;;;11.20;99.90;;;;;;5133095;28;20082;-60
2022/05/27 04:21:16;;;;;;;92.25;87.15;;;11.30;99.90;;;;;;5132607;28;20061;-60
2022/05/27 04:23:43;;;;;;;93.80;88.55;;;11.30;99.90;;;;;;5133169;28;20044;-60
2022/05/27 04:26:09;;;;;;;47.75;44.75;;;11.40;99.90;;;;;;5110889;28;20096;-60
2022/05/27 04:28:35;;;;;;;59.75;55.85;;;11.50;99.90;;;;;;5112198;28;20138;-60
2022/05/27 04:31:02;;;;;;;60.70;57.35;;;11.50;99.90;;;;;;5112421;28;20122;-60
2022/05/27 04:33:28;;;;;;;44.03;40.80;;;11.60;99.90;;;;;;5126916;28;20093;-60
2022/05/27 04:35:55;;;;;;;40.67;38.00;;;11.70;99.90;;;;;;5110256;28;20079;-60
2022/05/27 04:38:22;;;;;;;42.22;39.38;;;11.70;99.90;;;;;;5114284;27;20048;-60
2022/05/27 04:40:48;;;;;;;43.00;40.08;;;11.90;99.90;;;;;;5116016;28;20498;-60
2022/05/27 04:43:14;;;;;;;43.63;40.30;;;11.90;99.90;;;;;;5116991;27;20052;-60
2022/05/27 04:45:40;;;;;;;43.40;40.30;;;12.00;99.90;;;;;;5118267;27;20393;-60
2022/05/27 04:48:07;;;;;;;45.25;42.50;;;11.90;99.90;;;;;;5136802;27;20046;-60
2022/05/27 04:50:33;;;;;;;47.47;44.85;;;12.00;99.90;;;;;;5117381;27;20116;-60
2022/05/27 04:52:59;;;;;;;48.10;44.53;;;12.00;99.90;;;;;;5136104;27;20371;-60
2022/05/27 04:55:26;;;;;;;53.25;49.90;;;12.00;99.90;;;;;;5135725;27;20043;-60
2022/05/27 04:57:54;;;;;;;52.92;49.30;;;12.10;99.90;;;;;;5136697;27;20043;-60
2022/05/27 05:00:23;;;;;;;52.28;48.95;;;12.10;99.90;;;;;;5136134;27;20104;-60
2022/05/27 05:02:49;;;;;;;51.78;48.47;;;12.10;99.90;;;;;;5113574;28;20040;-60
2022/05/27 05:05:17;;;;;;;53.80;50.22;;;12.20;99.90;;;;;;5128694;27;20047;-60
2022/05/27 05:07:47;;;;;;;52.85;49.65;;;12.10;99.90;;;;;;5135940;27;20047;-60
2022/05/27 05:10:17;;;;;;;50.15;46.90;;;12.20;99.90;;;;;;5135337;27;20568;-60
2022/05/27 05:12:43;;;;;;;52.15;49.20;;;12.20;99.90;;;;;;5136350;27;20126;-60
2022/05/27 05:15:11;;;;;;;52.55;49.40;;;12.20;99.90;;;;;;5136201;27;20066;-60
2022/05/27 05:17:36;;;;;;;52.92;49.75;;;12.20;99.90;;;;;;5135373;27;20614;-60
2022/05/27 05:20:04;;;;;;;52.70;49.60;;;12.20;99.90;;;;;;5135755;27;20086;-60
2022/05/27 05:22:31;;;;;;;53.33;49.85;;;12.20;99.90;;;;;;5135413;27;20054;-60
2022/05/27 05:24:57;;;;;;;53.17;49.83;;;12.10;99.90;;;;;;5116855;27;20107;-60
2022/05/27 05:27:24;;;;;;;53.10;50.33;;;12.10;99.90;;;;;;5135772;27;20117;-59
2022/05/27 05:29:52;;;;;;;53.00;49.58;;;12.10;99.90;;;;;;5096464;28;20130;-59
2022/05/27 05:32:17;;;;;;;52.30;47.97;;;12.00;99.90;;;;;;5100418;27;20141;-59
2022/05/27 05:34:43;;;;;;;54.33;50.63;;;12.00;99.90;;;;;;5136127;27;20055;-59
2022/05/27 05:37:09;;;;;;;50.25;47.15;;;12.10;99.90;;;;;;5135161;27;20086;-60
2022/05/27 05:39:36;;;;;;;52.97;49.40;;;12.10;99.90;;;;;;5116468;27;20043;-60
2022/05/27 05:42:04;;;;;;;53.58;50.28;;;12.20;99.90;;;;;;5135580;27;20466;-60
2022/05/27 05:44:32;;;;;;;52.72;49.55;;;12.20;99.90;;;;;;5116446;27;20043;-60
2022/05/27 05:46:59;;;;;;;54.38;50.78;;;12.30;99.90;;;;;;5135519;27;20039;-60
2022/05/27 05:49:25;;;;;;;53.40;50.00;;;12.40;99.90;;;;;;5135470;27;20047;-60
2022/05/27 05:51:52;;;;;;;53.65;50.15;;;12.50;99.90;;;;;;5134547;27;20400;-60
2022/05/27 05:54:20;;;;;;;52.92;49.78;;;12.50;99.90;;;;;;5135299;27;20103;-60
2022/05/27 05:56:47;;;;;;;53.47;50.30;;;12.50;99.90;;;;;;5135399;27;20047;-60
2022/05/27 05:59:14;;;;;;;55.03;50.72;;;12.40;99.90;;;;;;5134476;27;20046;-60
2022/05/27 06:01:41;;;;;;;55.10;50.67;;;12.50;99.90;;;;;;5135515;27;20122;-60
2022/05/27 06:04:07;;;;;;;55.20;51.35;;;12.50;99.90;;;;;;5134591;27;20508;-60
2022/05/27 06:06:33;;;;;;;54.20;51.08;;;12.60;99.90;;;;;;5133967;27;20039;-60
2022/05/27 06:08:59;;;;;;;56.92;53.40;;;12.70;99.90;;;;;;5135269;27;20418;-60
2022/05/27 06:11:24;;;;;;;54.38;51.40;;;12.90;99.90;;;;;;5135038;27;20069;-60
2022/05/27 06:13:50;;;;;;;52.78;49.58;;;12.90;99.90;;;;;;5132923;27;20050;-60
2022/05/27 06:16:16;;;;;;;54.15;50.58;;;12.90;99.90;;;;;;5134804;27;20492;-60
2022/05/27 06:18:42;;;;;;;52.65;49.30;;;13.00;99.90;;;;;;5134342;27;20043;-60
2022/05/27 06:21:10;;;;;;;55.97;52.65;;;13.10;99.90;;;;;;5133056;27;20051;-60
2022/05/27 06:23:35;;;;;;;51.70;48.33;;;13.10;99.90;;;;;;5134633;27;20107;-60
2022/05/27 06:26:05;;;;;;;53.70;49.92;;;13.30;99.90;;;;;;5134526;27;20115;-60
2022/05/27 06:36:45;;;;;;;60.95;56.55;;;13.40;99.90;;;;;;5115758;27;20047;-60
2022/05/27 06:39:12;;;;;;;53.75;50.15;;;13.30;99.90;;;;;;5112297;28;20048;-60
2022/05/27 06:41:38;;;;;;;51.97;48.38;;;13.30;99.90;;;;;;5112911;28;20055;-60
2022/05/27 06:44:04;;;;;;;55.03;51.67;;;13.30;99.90;;;;;;5129453;27;20039;-60
2022/05/27 06:46:31;;;;;;;92.85;87.55;;;13.20;99.90;;;;;;5134216;27;20023;-60
2022/05/27 06:48:57;;;;;;;57.15;53.83;;;13.20;99.90;;;;;;5130200;27;20070;-60
2022/05/27 06:51:23;;;;;;;60.85;57.53;;;13.20;99.90;;;;;;5133765;27;20481;-60
2022/05/27 06:53:49;;;;;;;64.00;60.30;;;13.10;99.90;;;;;;5134128;27;20047;-60
2022/05/27 06:56:16;;;;;;;60.60;56.40;;;13.20;99.90;;;;;;5132716;27;20043;-60
2022/05/27 06:58:42;;;;;;;68.13;63.95;;;13.30;99.90;;;;;;5133496;27;20046;-60
2022/05/27 07:01:10;;;;;;;88.22;76.53;;;13.30;99.90;;;;;;5114946;27;20047;-60
2022/05/27 07:03:37;;;;;;;54.90;51.03;;;13.20;99.90;;;;;;5132892;27;20473;-60
2022/05/27 07:06:05;;;;;;;58.00;54.80;;;13.20;99.90;;;;;;5132407;27;20038;-60
2022/05/27 07:08:31;;;;;;;55.70;52.05;;;13.40;99.90;;;;;;5133772;27;20047;-60
2022/05/27 07:10:57;;;;;;;54.22;50.45;;;13.60;99.90;;;;;;5133042;27;20168;-60
2022/05/27 07:13:23;;;;;;;49.53;46.80;;;13.60;99.90;;;;;;5133561;27;20035;-60
2022/05/27 07:15:48;;;;;;;48.90;46.10;;;13.60;99.90;;;;;;5133584;27;20404;-60
2022/05/27 07:18:14;;;;;;;48.17;44.90;;;13.70;99.90;;;;;;5114642;28;20397;-60
2022/05/27 07:20:41;;;;;;;44.20;41.33;;;13.80;99.90;;;;;;5133456;27;20050;-60
2022/05/27 07:23:08;;;;;;;66.93;62.90;;;14.10;99.90;;;;;;5132633;27;20039;-60
2022/05/27 07:25:35;;;;;;;48.75;45.63;;;14.20;99.90;;;;;;5133996;27;20047;-60
2022/05/27 07:28:02;;;;;;;43.30;40.70;;;14.10;99.90;;;;;;5133566;27;20053;-60
2022/05/27 07:30:28;;;;;;;91.18;86.50;;;13.80;99.90;;;;;;5132785;27;20405;-60
2022/05/27 07:32:54;;;;;;;55.70;52.85;;;13.70;99.90;;;;;;5133438;28;20042;-60
2022/05/27 07:35:20;;;;;;;45.17;41.88;;;13.70;99.90;;;;;;5133145;28;20043;-60
2022/05/27 07:37:47;;;;;;;45.17;42.15;;;13.80;99.90;;;;;;5114102;28;20104;-60
2022/05/27 07:40:13;;;;;;;41.83;39.30;;;13.90;99.90;;;;;;5133111;28;20047;-60
2022/05/27 07:42:39;;;;;;;47.97;44.53;;;14.00;99.90;;;;;;5132636;28;20058;-60
2022/05/27 07:45:07;;;;;;;50.58;47.63;;;14.20;99.90;;;;;;5114010;28;20442;-60
2022/05/27 07:47:32;;;;;;;108.65;101.75;;;14.20;99.90;;;;;;5114894;28;20047;-60
2022/05/27 07:49:58;;;;;;;42.58;39.85;;;14.20;99.90;;;;;;5111103;28;20176;-60
2022/05/27 07:52:25;;;;;;;51.22;47.72;;;14.10;99.90;;;;;;5112179;28;20031;-60
2022/05/27 07:54:51;;;;;;;50.72;47.65;;;14.00;99.90;;;;;;5127825;28;20049;-60
2022/05/27 07:57:23;;;;;;;44.30;41.17;;;14.10;99.90;;;;;;5133183;28;20043;-60
2022/05/27 08:00:04;;;;;;;44.55;41.85;;;14.10;99.90;;;;;;5132182;28;20439;-60
2022/05/27 08:02:37;;;;;;;50.85;47.70;;;14.10;99.90;;;;;;5133536;28;20131;-60
2022/05/27 08:05:04;;;;;;;80.82;76.32;;;13.90;99.90;;;;;;5114128;28;20096;-60
2022/05/27 08:07:29;;;;;;;50.00;46.65;;;13.70;99.90;;;;;;5128726;28;20035;-60
2022/05/27 08:09:55;;;;;;;46.63;43.20;;;13.70;99.90;;;;;;5132512;28;20050;-60
2022/05/27 08:12:21;;;;;;;51.50;48.13;;;13.90;99.90;;;;;;5131430;27;20378;-60
2022/05/27 08:14:48;;;;;;;67.22;62.63;;;14.20;99.90;;;;;;5134981;27;20107;-60
2022/05/27 08:17:14;;;;;;;69.53;65.72;;;14.40;99.90;;;;;;5136285;27;20123;-60
2022/05/27 08:19:40;;;;;;;42.50;40.05;;;14.50;99.90;;;;;;5135108;27;20392;-60
2022/05/27 08:22:06;;;;;;;43.55;41.03;;;14.50;99.90;;;;;;5136564;27;20039;-60
2022/05/27 08:24:32;;;;;;;41.40;38.42;;;14.70;99.90;;;;;;5133030;27;20036;-60
2022/05/27 08:26:57;;;;;;;40.65;37.92;;;14.80;99.90;;;;;;5135736;27;20058;-60
2022/05/27 08:29:23;;;;;;;87.55;78.07;;;14.70;99.90;;;;;;5136855;27;20039;-60
2022/05/27 08:31:49;;;;;;;77.10;68.15;;;14.40;99.90;;;;;;5136040;27;20497;-60
2022/05/27 08:39:46;;;;;;;42.28;39.83;;;14.30;99.90;;;;;;5136620;27;20404;-60
2022/05/27 08:42:37;;;;;;;50.17;46.63;;;14.60;99.90;;;;;;5133130;27;20070;-60
2022/05/27 08:45:13;;;;;;;44.85;41.65;;;14.60;99.90;;;;;;5135857;27;20051;-60
2022/05/27 08:47:45;;;;;;;46.20;42.83;;;14.50;99.90;;;;;;5136028;27;20411;-60
2022/05/27 08:50:23;;;;;;;42.43;39.53;;;14.40;99.90;;;;;;5129137;27;20044;-60
2022/05/27 08:52:54;;;;;;;45.05;42.33;;;14.20;99.90;;;;;;5131638;27;20047;-60
2022/05/27 09:01:13;;;;;;;50.25;47.42;;;14.10;99.90;;;;;;5126649;27;20047;-60
2022/05/27 09:03:46;;;;;;;48.83;45.72;;;14.20;99.90;;;;;;5134855;27;20119;-60
2022/05/27 09:06:13;;;;;;;46.40;43.05;;;14.40;99.90;;;;;;5134587;27;20497;-60
2022/05/27 09:08:39;;;;;;;45.45;42.13;;;14.30;99.90;;;;;;5134327;27;20062;-60
2022/05/27 09:11:13;;;;;;;51.80;48.97;;;14.60;99.90;;;;;;5135653;27;20043;-60
2022/05/27 09:13:45;;;;;;;48.92;45.88;;;14.90;99.90;;;;;;5121683;27;20051;-60
2022/05/27 09:16:17;;;;;;;50.30;46.90;;;15.10;99.90;;;;;;5114743;27;20054;-60
2022/05/27 09:18:52;;;;;;;55.78;52.45;;;15.10;99.90;;;;;;5126750;27;20079;-60
2022/05/27 09:21:40;;;;;;;53.53;49.83;;;14.80;99.90;;;;;;5135805;27;20046;-60
2022/05/27 09:24:30;;;;;;;48.63;45.67;;;14.60;99.90;;;;;;5134861;27;20043;-60
2022/05/27 09:27:08;;;;;;;49.65;46.60;;;14.60;99.90;;;;;;5134006;27;20504;-60
2022/05/27 09:29:53;;;;;;;52.72;49.90;;;14.50;99.90;;;;;;5134523;27;20032;-60
2022/05/27 09:32:44;;;;;;;69.53;64.53;;;14.40;99.90;;;;;;5133057;27;20051;-60
2022/05/27 09:35:14;;;;;;;64.55;59.88;;;14.40;99.90;;;;;;5112896;27;20093;-60
2022/05/27 09:37:45;;;;;;;48.22;44.95;;;14.60;99.90;;;;;;5134295;27;20588;-60
2022/05/27 09:40:17;;;;;;;47.72;44.53;;;14.70;99.90;;;;;;5132230;27;20041;-60
2022/05/27 09:42:58;;;;;;;57.50;54.13;;;14.60;99.90;;;;;;5133266;27;20524;-60
2022/05/27 09:45:24;;;;;;;56.72;53.58;;;14.50;99.90;;;;;;5097359;28;20109;-60
2022/05/27 09:47:55;;;;;;;48.15;45.08;;;14.40;99.90;;;;;;5105131;27;20053;-60
2022/05/27 09:50:31;;;;;;;50.15;47.08;;;14.50;99.90;;;;;;5116622;27;20129;-60
2022/05/27 09:52:58;;;;;;;53.63;50.33;;;14.80;99.90;;;;;;5126804;27;20043;-60
2022/05/27 09:55:30;;;;;;;57.88;54.75;;;14.70;99.90;;;;;;5132022;27;20043;-60
2022/05/27 09:57:59;;;;;;;53.00;49.85;;;14.60;99.90;;;;;;5134307;27;20050;-60
2022/05/27 10:00:48;;;;;;;52.47;49.10;;;14.50;99.90;;;;;;5134032;27;20047;-60
2022/05/27 10:03:24;;;;;;;44.03;41.78;;;14.30;99.90;;;;;;5133669;27;20485;-60
2022/05/27 10:06:00;;;;;;;47.03;43.97;;;14.30;99.90;;;;;;5133981;27;20054;-60
2022/05/27 10:08:36;;;;;;;46.70;43.45;;;14.50;99.90;;;;;;5134550;27;20095;-60
2022/05/27 10:11:14;;;;;;;51.17;48.47;;;14.80;99.90;;;;;;5131310;27;20055;-60
2022/05/27 10:13:41;;;;;;;51.00;48.33;;;14.90;99.90;;;;;;5132663;27;20126;-60
2022/05/27 10:16:11;;;;;;;49.78;46.83;;;15.00;99.90;;;;;;5134476;27;20511;-60
2022/05/27 10:18:40;;;;;;;51.72;48.58;;;15.00;99.90;;;;;;5134460;27;20569;-60
2022/05/27 10:21:16;;;;;;;51.22;48.17;;;14.90;99.90;;;;;;5133677;27;20467;-60
2022/05/27 10:23:46;;;;;;;46.55;43.47;;;14.80;99.90;;;;;;5134929;27;20116;-60
2022/05/27 10:26:23;;;;;;;48.92;46.10;;;14.80;99.90;;;;;;5133749;27;20039;-60
2022/05/27 10:29:00;;;;;;;49.92;47.00;;;15.10;99.90;;;;;;5112529;28;20100;-60
2022/05/27 10:31:26;;;;;;;64.10;60.20;;;15.00;99.90;;;;;;5114386;28;20040;-60
2022/05/27 10:33:53;;;;;;;48.78;45.22;;;14.80;99.90;;;;;;5113414;28;20052;-60
2022/05/27 10:36:46;;;;;;;48.75;44.97;;;14.60;99.90;;;;;;5113358;28;20077;-60
2022/05/27 10:39:23;;;;;;;48.67;45.58;;;15.00;99.90;;;;;;5130772;27;20489;-60
2022/05/27 10:42:20;;;;;;;48.50;45.40;;;15.50;99.90;;;;;;5133521;27;20550;-60
2022/05/27 10:45:05;;;;;;;61.40;57.92;;;15.80;99.90;;;;;;5115883;27;20500;-60
2022/05/27 10:47:58;;;;;;;67.72;64.35;;;15.60;99.90;;;;;;5132755;27;20042;-60
2022/05/27 10:50:47;;;;;;;71.70;67.50;;;15.20;99.90;;;;;;5134230;27;20054;-60
2022/05/27 10:53:33;;;;;;;59.72;56.17;;;15.70;99.90;;;;;;5134554;27;20039;-60
2022/05/27 10:56:15;;;;;;;74.25;70.32;;;15.90;99.90;;;;;;5122424;27;20058;-60
2022/05/27 11:02:12;;;;;;;52.33;49.20;;;15.20;99.90;;;;;;5133194;27;20050;-60
2022/05/27 11:05:14;;;;;;;51.53;48.10;;;15.10;99.90;;;;;;5112217;28;20367;-60
2022/05/27 11:07:53;;;;;;;49.30;46.38;;;14.80;99.90;;;;;;5114050;28;20052;-60
2022/05/27 11:10:24;;;;;;;53.20;49.53;;;14.50;99.90;;;;;;5111181;28;20122;-60
2022/05/27 11:16:29;;;;;;;50.92;47.85;;;15.60;99.90;;;;;;5133430;27;20047;-60
2022/05/27 11:19:14;;;;;;;54.17;50.85;;;15.90;99.90;;;;;;5134005;27;20051;-60
2022/05/27 11:22:15;;;;;;;79.60;75.05;;;16.30;99.90;;;;;;5133572;27;20392;-60
2022/05/27 11:25:14;;;;;;;73.07;68.60;;;15.80;99.40;;;;;;5133542;27;20401;-60
2022/05/27 11:28:12;;;;;;;74.20;70.50;;;15.80;99.90;;;;;;5134083;27;20042;-60
2022/05/27 11:30:40;;;;;;;91.75;86.43;;;16.30;99.40;;;;;;5132858;27;20118;-60
2022/05/27 11:33:13;;;;;;;81.38;76.65;;;16.10;99.90;;;;;;5133853;27;20066;-60
2022/05/27 11:35:43;;;;;;;81.60;77.00;;;15.70;99.90;;;;;;5133866;28;20131;-60
2022/05/27 11:38:33;;;;;;;81.10;75.88;;;15.40;99.90;;;;;;5132966;28;20082;-60
2022/05/27 11:41:07;;;;;;;81.82;76.70;;;15.30;99.90;;;;;;5111366;28;20043;-61
2022/05/27 11:43:52;;;;;;;49.25;46.08;;;15.10;99.90;;;;;;5114169;28;20078;-60
2022/05/27 11:46:36;;;;;;;53.65;50.55;;;15.00;99.90;;;;;;5133779;27;20054;-60
2022/05/27 11:49:04;;;;;;;52.92;49.42;;;15.00;99.90;;;;;;5137521;27;20183;-60
2022/05/27 11:51:57;;;;;;;52.78;48.78;;;15.00;99.90;;;;;;5137233;27;20055;-60
2022/05/27 11:54:41;;;;;;;57.13;53.45;;;15.00;99.90;;;;;;5137566;27;20085;-60
2022/05/27 11:57:17;;;;;;;48.03;44.97;;;15.10;99.90;;;;;;5137383;27;20043;-60
2022/05/27 11:59:56;;;;;;;57.72;53.20;;;15.10;99.90;;;;;;5137789;27;20031;-60
2022/05/27 12:02:23;;;;;;;47.72;44.63;;;15.10;99.90;;;;;;5136998;27;20051;-60
2022/05/27 12:04:54;;;;;;;48.25;45.15;;;14.90;99.90;;;;;;5136945;27;20048;-60
2022/05/27 12:07:27;;;;;;;55.72;52.30;;;14.70;99.90;;;;;;5137433;27;20130;-60
2022/05/27 12:10:17;;;;;;;58.22;54.90;;;14.80;99.90;;;;;;5131193;27;20470;-60
2022/05/27 12:12:50;;;;;;;49.08;45.40;;;15.00;99.90;;;;;;5115652;28;20450;-60
2022/05/27 12:15:24;;;;;;;64.72;59.80;;;14.90;99.90;;;;;;5101393;28;20043;-60
2022/05/27 12:17:53;;;;;;;49.50;46.65;;;14.60;99.90;;;;;;5116986;28;20043;-60
2022/05/27 12:20:24;;;;;;;48.30;45.35;;;14.30;99.90;;;;;;5116106;28;20466;-60
2022/05/27 12:22:53;;;;;;;54.92;51.05;;;14.30;99.90;;;;;;5116322;28;20056;-60
2022/05/27 12:25:26;;;;;;;48.63;45.25;;;14.40;99.90;;;;;;5133252;27;20121;-60
2022/05/27 12:27:54;;;;;;;75.63;69.50;;;14.30;99.90;;;;;;5118962;27;20137;-60
2022/05/27 12:30:28;;;;;;;60.70;56.90;;;14.60;99.90;;;;;;5118111;27;20051;-60
2022/05/27 12:32:54;;;;;;;51.15;47.97;;;14.80;99.90;;;;;;5135658;27;20088;-60
2022/05/27 12:35:40;;;;;;;68.53;63.17;;;14.60;99.90;;;;;;5136980;27;20047;-60
2022/05/27 12:38:12;;;;;;;52.50;49.47;;;14.40;99.90;;;;;;5124263;27;20108;-60
2022/05/27 12:40:44;;;;;;;48.03;44.60;;;14.40;99.90;;;;;;5131257;27;20051;-60
2022/05/27 12:43:19;;;;;;;87.05;80.72;;;14.90;99.90;;;;;;5134499;27;20071;-60
2022/05/27 12:45:53;;;;;;;54.80;51.08;;;15.10;99.90;;;;;;5126174;27;20055;-60
2022/05/27 12:48:29;;;;;;;52.13;48.80;;;14.70;99.90;;;;;;5155828;27;20039;-60
2022/05/27 12:50:57;;;;;;;;;;;14.60;99.90;;;;;;5137608;27;20134;-60
2022/05/27 12:53:42;;;;;;;60.25;56.70;;;14.40;99.90;;;;;;5119769;27;19919;-60
2022/05/27 13:02:40;;;;;;;51.47;48.38;;;15.10;99.90;;;;;;5132097;27;20047;-60
2022/05/27 13:05:06;;;;;;;58.83;54.35;;;15.30;99.90;;;;;;5115747;28;20466;-60
2022/05/27 13:07:33;;;;;;;56.78;53.55;;;15.80;99.90;;;;;;5114967;28;20056;-60
2022/05/27 13:10:17;;;;;;;51.28;48.03;;;15.60;99.90;;;;;;5114304;28;20048;-60
2022/05/27 13:12:45;;;;;;;59.80;55.63;;;15.30;99.90;;;;;;5133795;27;20043;-60
2022/05/27 13:15:20;;;;;;;59.85;55.72;;;15.10;99.90;;;;;;5135252;27;20591;-60
2022/05/27 13:17:51;;;;;;;53.05;49.65;;;15.20;99.90;;;;;;5135686;27;20054;-60
2022/05/27 13:20:19;;;;;;;57.38;53.63;;;15.40;99.90;;;;;;5113740;28;20048;-60
2022/05/27 13:22:58;;;;;;;121.35;94.13;;;15.40;99.90;;;;;;5115732;27;20515;-60
2022/05/27 13:25:24;;;;;;;68.00;64.00;;;15.70;99.90;;;;;;5135392;27;20075;-60
2022/05/27 13:27:55;;;;;;;67.50;63.28;;;15.60;99.90;;;;;;5126516;27;20107;-60
2022/05/27 13:30:44;;;;;;;55.63;51.88;;;15.30;99.90;;;;;;5133718;27;20043;-60
2022/05/27 13:33:12;;;;;;;50.85;47.38;;;15.20;99.90;;;;;;5135074;27;20046;-60
2022/05/27 13:35:44;;;;;;;50.63;47.50;;;15.20;99.90;;;;;;5135342;27;20062;-60